createdAt,value
2018-07-19T00:00:38.046Z,56.34
2018-07-19T00:03:05.768Z,55.72
2018-07-19T00:05:33.458Z,55.68
2018-07-19T00:08:01.109Z,55.95
2018-07-19T00:10:28.790Z,56.17
2018-07-19T00:12:56.417Z,56.40
2018-07-19T00:15:24.097Z,56.72
2018-07-19T00:17:51.763Z,56.23
2018-07-19T00:20:19.418Z,56.17
2018-07-19T00:22:47.117Z,56.85
2018-07-19T00:25:14.871Z,57.28
2018-07-19T00:27:42.609Z,56.66
2018-07-19T00:30:10.247Z,56.72
2018-07-19T00:32:37.944Z,56.93
2018-07-19T00:35:05.581Z,57.15
2018-07-19T00:37:33.282Z,57.03
2018-07-19T00:40:01.053Z,57.65
2018-07-19T00:42:29.522Z,57.17
2018-07-19T00:44:57.390Z,58.06
2018-07-19T00:47:25.082Z,57.93
2018-07-19T00:49:52.801Z,57.77
2018-07-19T00:52:20.499Z,58.20
2018-07-19T00:54:48.205Z,57.75
2018-07-19T00:57:15.921Z,58.35
2018-07-19T00:59:43.565Z,57.86
2018-07-19T01:02:11.244Z,57.97
2018-07-19T01:04:38.939Z,58.49
2018-07-19T01:07:06.686Z,59.06
2018-07-19T01:09:34.463Z,58.74
2018-07-19T01:12:02.297Z,58.50
2018-07-19T01:14:29.981Z,59.08
2018-07-19T01:16:57.749Z,58.80
2018-07-19T01:19:25.504Z,58.93
2018-07-19T01:21:53.203Z,59.52
2018-07-19T01:24:20.913Z,59.16
2018-07-19T01:26:48.594Z,60.24
2018-07-19T01:29:16.374Z,60.14
2018-07-19T01:31:44.126Z,61.29
2018-07-19T01:34:11.765Z,60.66
2018-07-19T01:36:39.464Z,61.30
2018-07-19T01:39:08.747Z,60.47
2018-07-19T01:42:24.208Z,60.81
2018-07-19T01:44:51.857Z,61.21
2018-07-19T01:47:19.572Z,61.37
2018-07-19T01:49:48.231Z,60.59
2018-07-19T01:52:15.940Z,60.70
2018-07-19T01:54:43.701Z,60.41
2018-07-19T01:57:12.431Z,60.03
2018-07-19T01:59:40.837Z,60.24
2018-07-19T02:02:08.504Z,60.28
2018-07-19T02:04:36.241Z,60.17
2018-07-19T02:07:03.953Z,60.22
2018-07-19T02:09:31.705Z,60.11
2018-07-19T02:12:05.825Z,60.38
2018-07-19T02:14:33.487Z,61.20
2018-07-19T02:17:01.422Z,60.43
2018-07-19T02:19:29.181Z,60.86
2018-07-19T02:21:56.830Z,61.17
2018-07-19T02:24:24.482Z,61.20
2018-07-19T02:26:52.170Z,61.26
2018-07-19T02:29:19.965Z,61.19
2018-07-19T02:31:47.722Z,61.22
2018-07-19T02:34:15.378Z,61.79
2018-07-19T02:36:43.161Z,62.04
2018-07-19T02:39:12.128Z,61.59
2018-07-19T02:41:40.209Z,61.51
2018-07-19T02:44:09.185Z,61.44
2018-07-19T02:46:37.872Z,61.33
2018-07-19T02:49:05.680Z,61.33
2018-07-19T02:51:33.329Z,61.64
2018-07-19T02:54:00.969Z,61.03
2018-07-19T02:56:28.612Z,61.13
2018-07-19T02:58:56.237Z,60.73
2018-07-19T03:01:23.973Z,61.25
2018-07-19T03:03:51.701Z,60.35
2018-07-19T03:06:19.418Z,59.98
2018-07-19T03:08:47.077Z,60.84
2018-07-19T03:11:14.749Z,60.12
2018-07-19T03:13:42.393Z,61.00
2018-07-19T03:16:10.110Z,60.29
2018-07-19T03:18:37.841Z,61.27
2018-07-19T03:21:05.564Z,61.21
2018-07-19T03:23:33.201Z,60.23
2018-07-19T03:26:00.857Z,60.77
2018-07-19T03:28:28.526Z,60.95
2018-07-19T03:30:56.237Z,60.28
2018-07-19T03:33:23.877Z,60.76
2018-07-19T03:35:51.473Z,59.53
2018-07-19T03:38:19.217Z,59.54
2018-07-19T03:40:47.020Z,59.59
2018-07-19T03:43:14.688Z,58.11
2018-07-19T03:45:42.375Z,58.49
2018-07-19T03:48:10.045Z,58.67
2018-07-19T03:50:37.682Z,59.03
2018-07-19T03:53:05.401Z,58.22
2018-07-19T03:55:33.025Z,59.30
2018-07-19T03:58:00.700Z,59.04
2018-07-19T04:00:28.382Z,58.70
2018-07-19T04:02:56.179Z,58.87
2018-07-19T04:05:23.829Z,58.80
2018-07-19T04:07:51.441Z,58.55
2018-07-19T04:10:19.140Z,58.45
2018-07-19T04:12:46.889Z,57.49
2018-07-19T04:15:14.535Z,57.94
2018-07-19T04:17:57.825Z,57.33
2018-07-19T04:20:26.570Z,57.05
2018-07-19T04:22:54.834Z,57.62
2018-07-19T04:25:23.017Z,57.82
2018-07-19T04:27:50.893Z,57.66
2018-07-19T04:30:18.533Z,57.78
2018-07-19T04:32:46.237Z,58.77
2018-07-19T04:35:14.049Z,59.87
2018-07-19T04:37:41.716Z,58.75
2018-07-19T04:40:09.341Z,58.52
2018-07-19T04:42:37.124Z,59.67
2018-07-19T04:45:05.261Z,59.41
2018-07-19T04:47:32.892Z,59.11
2018-07-19T04:50:00.537Z,58.99
2018-07-19T04:52:28.156Z,59.05
2018-07-19T04:54:56.242Z,59.00
2018-07-19T04:57:23.933Z,58.68
2018-07-19T04:59:51.976Z,59.10
2018-07-19T05:02:19.999Z,58.30
2018-07-19T05:04:47.641Z,58.88
2018-07-19T05:07:15.308Z,58.32
2018-07-19T05:09:43.394Z,56.98
2018-07-19T05:12:11.077Z,55.83
2018-07-19T05:14:38.876Z,55.27
2018-07-19T05:17:06.561Z,54.88
2018-07-19T05:19:34.257Z,55.00
2018-07-19T05:22:01.921Z,54.22
2018-07-19T05:24:29.570Z,53.56
2018-07-19T05:26:57.269Z,53.59
2018-07-19T05:29:24.974Z,51.20
2018-07-19T05:31:52.681Z,53.38
2018-07-19T05:34:20.345Z,52.05
2018-07-19T05:36:47.977Z,52.87
2018-07-19T05:39:15.615Z,52.73
2018-07-19T05:41:43.353Z,53.20
2018-07-19T05:44:11.517Z,52.03
2018-07-19T05:46:39.345Z,50.96
2018-07-19T05:49:06.996Z,49.33
2018-07-19T05:51:34.737Z,49.44
2018-07-19T05:54:02.462Z,48.02
2018-07-19T05:56:30.098Z,47.64
2018-07-19T05:58:57.859Z,47.32
2018-07-19T06:01:25.557Z,48.07
2018-07-19T06:03:53.526Z,47.29
2018-07-19T06:06:21.589Z,45.98
2018-07-19T06:08:49.270Z,46.18
2018-07-19T06:11:17.341Z,45.72
2018-07-19T06:13:45.108Z,45.03
2018-07-19T06:16:12.832Z,44.76
2018-07-19T06:18:40.597Z,44.70
2018-07-19T06:21:08.238Z,44.67
2018-07-19T06:23:35.961Z,43.73
2018-07-19T06:26:03.802Z,43.18
2018-07-19T06:28:31.436Z,42.87
2018-07-19T06:30:59.182Z,42.18
2018-07-19T06:33:27.029Z,42.34
2018-07-19T06:35:54.735Z,42.87
2018-07-19T06:38:22.466Z,42.39
2018-07-19T06:40:50.197Z,42.59
2018-07-19T06:43:17.833Z,41.71
2018-07-19T06:45:45.502Z,41.58
2018-07-19T06:48:19.728Z,40.55
2018-07-19T06:50:47.357Z,40.60
2018-07-19T06:53:15.053Z,40.51
2018-07-19T06:55:42.805Z,40.66
2018-07-19T06:58:10.473Z,40.93
2018-07-19T07:00:38.121Z,41.46
2018-07-19T07:03:05.998Z,41.62
2018-07-19T07:05:33.686Z,40.56
2018-07-19T07:08:01.298Z,40.49
2018-07-19T07:10:36.317Z,40.32
2018-07-19T07:13:04.064Z,40.12
2018-07-19T07:15:31.829Z,39.61
2018-07-19T07:17:59.568Z,38.99
2018-07-19T07:20:27.209Z,39.90
2018-07-19T07:22:56.042Z,39.34
2018-07-19T07:25:23.783Z,39.31
2018-07-19T07:27:51.561Z,39.77
2018-07-19T07:30:19.223Z,38.91
2018-07-19T07:32:46.860Z,38.59
2018-07-19T07:35:14.601Z,40.12
2018-07-19T07:37:42.218Z,38.71
2018-07-19T07:40:10.729Z,38.51
2018-07-19T07:42:38.350Z,37.79
2018-07-19T07:45:06.030Z,38.78
2018-07-19T07:47:33.644Z,38.37
2018-07-19T07:50:01.326Z,38.12
2018-07-19T07:52:28.930Z,36.39
2018-07-19T07:54:56.902Z,36.65
2018-07-19T07:57:24.677Z,36.39
2018-07-19T07:59:52.406Z,37.21
2018-07-19T08:02:20.057Z,37.46
2018-07-19T08:04:47.701Z,36.31
2018-07-19T08:07:15.358Z,37.26
2018-07-19T08:09:43.056Z,36.83
2018-07-19T08:12:10.930Z,36.27
2018-07-19T08:14:38.685Z,36.74
2018-07-19T08:17:06.426Z,37.39
2018-07-19T08:19:34.089Z,36.56
2018-07-19T08:22:01.761Z,36.15
2018-07-19T08:24:29.405Z,35.96
2018-07-19T08:26:57.101Z,36.38
2018-07-19T08:29:24.844Z,37.28
2018-07-19T08:31:52.548Z,37.19
2018-07-19T08:34:20.165Z,36.12
2018-07-19T08:36:47.808Z,35.53
2018-07-19T08:39:15.423Z,35.32
2018-07-19T08:41:44.149Z,35.02
2018-07-19T08:44:11.742Z,35.26
2018-07-19T08:46:39.428Z,34.70
2018-07-19T08:49:07.151Z,36.50
2018-07-19T08:51:34.883Z,35.43
2018-07-19T08:54:02.635Z,34.66
2018-07-19T08:56:30.356Z,35.68
2018-07-19T08:58:58.255Z,35.16
2018-07-19T09:01:25.965Z,35.50
2018-07-19T09:03:53.658Z,34.69
2018-07-19T09:06:21.339Z,33.90
2018-07-19T09:08:48.973Z,34.44
2018-07-19T09:11:16.973Z,33.50
2018-07-19T09:13:44.764Z,34.47
2018-07-19T09:16:12.453Z,32.88
2018-07-19T09:18:40.150Z,34.89
2018-07-19T09:21:08.025Z,33.66
2018-07-19T09:23:35.678Z,32.79
2018-07-19T09:26:03.351Z,34.36
2018-07-19T09:28:30.965Z,33.36
2018-07-19T09:30:58.653Z,33.23
2018-07-19T09:33:26.326Z,34.04
2018-07-19T09:35:54.004Z,34.13
2018-07-19T09:38:22.064Z,34.23
2018-07-19T09:40:49.633Z,31.97
2018-07-19T09:43:17.285Z,32.71
2018-07-19T09:45:44.993Z,32.81
2018-07-19T09:48:12.623Z,32.51
2018-07-19T09:50:40.273Z,32.48
2018-07-19T09:53:07.913Z,32.69
2018-07-19T09:55:35.636Z,32.18
2018-07-19T09:58:03.291Z,31.76
2018-07-19T10:00:37.475Z,32.56
2018-07-19T10:03:05.231Z,33.58
2018-07-19T10:05:32.929Z,33.16
2018-07-19T10:08:00.597Z,30.75
2018-07-19T10:10:35.660Z,27.92
2018-07-19T10:13:03.449Z,28.37
2018-07-19T10:15:31.187Z,29.25
2018-07-19T10:17:58.789Z,29.99
2018-07-19T10:20:26.438Z,29.62
2018-07-19T10:22:54.065Z,29.76
2018-07-19T10:25:21.802Z,28.77
2018-07-19T10:27:49.440Z,29.74
2018-07-19T10:30:17.155Z,28.21
2018-07-19T10:32:44.812Z,28.13
2018-07-19T10:35:12.481Z,27.32
2018-07-19T10:37:40.179Z,28.07
2018-07-19T10:40:07.829Z,27.86
2018-07-19T10:42:35.585Z,27.58
2018-07-19T10:45:03.256Z,27.69
2018-07-19T10:47:30.954Z,25.91
2018-07-19T10:49:58.662Z,25.92
2018-07-19T10:52:26.342Z,26.46
2018-07-19T10:54:54.037Z,26.32
2018-07-19T10:57:21.709Z,25.59
2018-07-19T10:59:49.356Z,25.80
2018-07-19T11:02:24.061Z,27.47
2018-07-19T11:04:51.753Z,25.90
2018-07-19T11:07:19.445Z,26.79
2018-07-19T11:09:47.457Z,27.05
2018-07-19T11:12:15.138Z,27.29
2018-07-19T11:14:42.818Z,26.67
2018-07-19T11:17:10.508Z,25.70
2018-07-19T11:19:38.138Z,26.16
2018-07-19T11:22:06.201Z,27.00
2018-07-19T11:24:33.809Z,25.70
2018-07-19T11:27:01.594Z,26.36
2018-07-19T11:29:29.196Z,26.45
2018-07-19T11:31:56.849Z,26.19
2018-07-19T11:34:24.508Z,26.45
2018-07-19T11:36:52.872Z,26.21
2018-07-19T11:39:20.596Z,25.91
2018-07-19T11:41:48.352Z,25.46
2018-07-19T11:44:16.030Z,25.38
2018-07-19T11:46:43.888Z,26.27
2018-07-19T11:49:11.499Z,25.45
2018-07-19T11:51:39.190Z,26.34
2018-07-19T11:54:06.849Z,25.76
2018-07-19T11:56:34.489Z,24.93
2018-07-19T11:59:02.272Z,24.17
2018-07-19T12:01:29.921Z,24.78
2018-07-19T12:03:57.556Z,24.94
2018-07-19T12:06:27.426Z,24.60
2018-07-19T12:08:55.078Z,23.79
2018-07-19T12:11:22.757Z,23.35
2018-07-19T12:13:50.410Z,24.68
2018-07-19T12:16:18.354Z,23.17
2018-07-19T12:18:46.022Z,23.18
2018-07-19T12:21:13.635Z,23.42
2018-07-19T12:23:41.366Z,22.90
2018-07-19T12:26:09.010Z,23.09
2018-07-19T12:28:36.670Z,21.68
2018-07-19T12:31:04.375Z,21.38
2018-07-19T12:33:32.065Z,21.78
2018-07-19T12:35:59.758Z,21.67
2018-07-19T12:38:27.429Z,20.15
2018-07-19T12:40:55.073Z,20.94
2018-07-19T12:43:22.785Z,20.70
2018-07-19T12:45:50.461Z,21.96
2018-07-19T12:48:18.241Z,20.99
2018-07-19T12:50:45.970Z,20.39
2018-07-19T12:53:13.603Z,20.33
2018-07-19T12:55:41.301Z,20.39
2018-07-19T12:58:08.929Z,20.87
2018-07-19T13:00:36.592Z,20.32
2018-07-19T13:03:04.213Z,19.70
2018-07-19T13:05:31.962Z,21.01
2018-07-19T13:07:59.566Z,20.68
2018-07-19T13:10:42.253Z,20.54
2018-07-19T13:13:09.896Z,20.70
2018-07-19T13:15:37.645Z,20.88
2018-07-19T13:18:05.328Z,21.34
2018-07-19T13:20:33.145Z,20.67
2018-07-19T13:23:00.858Z,21.65
2018-07-19T13:25:28.498Z,22.23
2018-07-19T13:27:56.167Z,21.98
2018-07-19T13:30:23.846Z,22.09
2018-07-19T13:32:51.545Z,21.73
2018-07-19T13:35:19.245Z,22.37
2018-07-19T13:37:46.877Z,22.33
2018-07-19T13:40:14.656Z,22.68
2018-07-19T13:42:42.348Z,23.09
2018-07-19T13:45:10.042Z,22.49
2018-07-19T13:47:38.483Z,22.33
2018-07-19T13:50:06.212Z,22.35
2018-07-19T13:52:51.394Z,22.35
2018-07-19T13:55:19.091Z,22.75
2018-07-19T13:57:46.746Z,22.80
2018-07-19T14:00:14.382Z,22.93
2018-07-19T14:02:42.076Z,22.62
2018-07-19T14:05:09.717Z,24.05
2018-07-19T14:07:37.341Z,23.46
2018-07-19T14:12:51.897Z,23.43
2018-07-19T14:15:19.562Z,23.19
2018-07-19T14:17:47.244Z,23.98
2018-07-19T14:20:14.885Z,23.91
2018-07-19T14:22:42.581Z,24.71
2018-07-19T14:25:10.226Z,23.88
2018-07-19T14:27:37.921Z,24.39
2018-07-19T14:30:06.105Z,25.32
2018-07-19T14:32:33.776Z,25.39
2018-07-19T14:35:02.168Z,25.66
2018-07-19T14:37:29.810Z,23.89
2018-07-19T14:39:57.502Z,24.02
2018-07-19T14:42:25.261Z,24.71
2018-07-19T14:44:52.926Z,24.25
2018-07-19T14:47:20.562Z,23.79
2018-07-19T14:49:48.197Z,24.44
2018-07-19T14:52:15.949Z,24.93
2018-07-19T14:54:43.666Z,24.40
2018-07-19T14:57:11.286Z,24.34
2018-07-19T14:59:39.017Z,25.27
2018-07-19T15:02:06.691Z,25.83
2018-07-19T15:04:34.421Z,25.40
2018-07-19T15:07:02.069Z,25.54
2018-07-19T15:09:29.718Z,25.75
2018-07-19T15:11:57.517Z,25.27
2018-07-19T15:14:25.173Z,25.03
2018-07-19T15:16:52.860Z,25.12
2018-07-19T15:19:20.513Z,25.20
2018-07-19T15:21:48.187Z,25.62
2018-07-19T15:24:15.983Z,25.47
2018-07-19T15:26:43.706Z,24.83
2018-07-19T15:29:11.306Z,24.70
2018-07-19T15:31:39.267Z,24.49
2018-07-19T15:34:06.996Z,25.00
2018-07-19T15:36:34.684Z,24.07
2018-07-19T15:39:02.418Z,24.78
2018-07-19T15:41:30.069Z,24.61
2018-07-19T15:43:57.714Z,23.90
2018-07-19T15:46:25.420Z,24.08
2018-07-19T15:48:53.162Z,23.40
2018-07-19T15:51:20.805Z,24.65
2018-07-19T15:53:48.448Z,25.49
2018-07-19T15:56:16.213Z,23.98
2018-07-19T15:58:43.831Z,24.23
2018-07-19T16:01:11.483Z,24.12
2018-07-19T16:03:39.193Z,25.15
2018-07-19T16:06:06.845Z,25.21
2018-07-19T16:08:34.498Z,25.20
2018-07-19T16:11:02.314Z,25.76
2018-07-19T16:13:29.952Z,25.14
2018-07-19T16:15:57.895Z,25.84
2018-07-19T16:18:25.602Z,25.53
2018-07-19T16:20:53.262Z,26.33
2018-07-19T16:23:20.925Z,25.60
2018-07-19T16:25:48.573Z,25.93
2018-07-19T16:28:16.269Z,26.54
2018-07-19T16:30:43.993Z,26.31
2018-07-19T16:33:11.666Z,27.02
2018-07-19T16:35:39.350Z,26.02
2018-07-19T16:38:07.026Z,26.19
2018-07-19T16:40:34.791Z,25.34
2018-07-19T16:43:02.581Z,26.33
2018-07-19T16:45:30.197Z,26.96
2018-07-19T16:47:57.862Z,26.77
2018-07-19T16:50:25.497Z,26.65
2018-07-19T16:52:53.212Z,27.16
2018-07-19T16:55:20.838Z,26.53
2018-07-19T16:57:48.462Z,26.72
2018-07-19T17:00:16.686Z,27.88
2018-07-19T17:02:44.356Z,28.35
2018-07-19T17:05:11.970Z,31.40
2018-07-19T17:07:39.665Z,30.81
2018-07-19T17:10:34.963Z,31.04
2018-07-19T17:13:02.638Z,31.31
2018-07-19T17:15:30.227Z,30.33
2018-07-19T17:17:57.849Z,30.71
2018-07-19T17:20:25.550Z,30.59
2018-07-19T17:22:53.185Z,30.45
2018-07-19T17:25:20.797Z,30.40
2018-07-19T17:27:48.542Z,30.31
2018-07-19T17:30:16.209Z,31.09
2018-07-19T17:32:43.852Z,29.77
2018-07-19T17:35:11.621Z,30.50
2018-07-19T17:37:39.242Z,29.70
2018-07-19T17:40:07.005Z,30.43
2018-07-19T17:42:35.024Z,30.39
2018-07-19T17:45:02.725Z,30.51
2018-07-19T17:47:30.341Z,29.38
2018-07-19T17:49:57.936Z,29.16
2018-07-19T17:52:25.501Z,29.63
2018-07-19T17:54:53.205Z,29.06
2018-07-19T17:57:20.900Z,29.60
2018-07-19T17:59:48.612Z,29.39
2018-07-19T18:02:16.262Z,30.14
2018-07-19T18:04:43.973Z,30.26
2018-07-19T18:07:11.676Z,29.78
2018-07-19T18:09:39.323Z,30.24
2018-07-19T18:12:07.321Z,29.45
2018-07-19T18:14:35.060Z,30.89
2018-07-19T18:17:02.721Z,31.08
2018-07-19T18:19:30.404Z,31.58
2018-07-19T18:21:58.006Z,31.71
2018-07-19T18:24:25.724Z,31.66
2018-07-19T18:26:53.437Z,31.24
2018-07-19T18:29:21.081Z,32.15
2018-07-19T18:31:48.845Z,31.97
2018-07-19T18:34:16.542Z,32.17
2018-07-19T18:36:44.198Z,32.23
2018-07-19T18:39:12.284Z,32.45
2018-07-19T18:41:40.486Z,31.64
2018-07-19T18:44:08.511Z,32.33
2018-07-19T18:46:36.518Z,32.66
2018-07-19T18:49:04.173Z,32.28
2018-07-19T18:51:31.850Z,32.28
2018-07-19T18:53:59.520Z,32.34
2018-07-19T18:56:27.457Z,32.24
2018-07-19T18:58:55.066Z,32.12
2018-07-19T19:01:22.806Z,32.35
2018-07-19T19:03:50.917Z,31.82
2018-07-19T19:06:19.284Z,32.03
2018-07-19T19:08:46.469Z,33.40
2018-07-19T19:11:14.218Z,34.13
2018-07-19T19:13:41.855Z,33.68
2018-07-19T19:16:09.474Z,33.70
2018-07-19T19:18:37.085Z,34.71
2018-07-19T19:21:05.614Z,34.11
2018-07-19T19:23:33.312Z,34.36
2018-07-19T19:26:00.968Z,35.26
2018-07-19T19:28:28.780Z,34.76
2018-07-19T19:30:56.821Z,35.86
2018-07-19T19:33:24.411Z,35.47
2018-07-19T19:35:52.661Z,35.67
2018-07-19T19:38:20.259Z,36.52
2018-07-19T19:40:47.963Z,37.58
2018-07-19T19:43:15.526Z,37.60
2018-07-19T19:45:43.146Z,38.12
2018-07-19T19:48:10.750Z,39.20
2018-07-19T19:50:38.412Z,38.99
2018-07-19T19:53:06.421Z,38.69
2018-07-19T19:55:34.201Z,38.69
2018-07-19T19:58:01.905Z,39.92
2018-07-19T20:00:29.545Z,39.12
2018-07-19T20:02:57.237Z,39.61
2018-07-19T20:05:24.869Z,40.07
2018-07-19T20:07:52.557Z,40.26
2018-07-19T20:10:35.450Z,40.37
2018-07-19T20:13:03.084Z,41.29
2018-07-19T20:15:31.637Z,40.64
2018-07-19T20:17:59.272Z,41.50
2018-07-19T20:20:26.905Z,40.90
2018-07-19T20:22:54.635Z,41.71
2018-07-19T20:25:22.277Z,41.75
2018-07-19T20:27:49.872Z,41.94
2018-07-19T20:30:17.593Z,41.15
2018-07-19T20:32:45.197Z,40.89
2018-07-19T20:35:12.961Z,41.13
2018-07-19T20:37:40.593Z,41.56
2018-07-19T20:40:08.324Z,42.34
2018-07-19T20:42:35.961Z,42.26
2018-07-19T20:45:03.691Z,41.66
2018-07-19T20:47:31.281Z,42.00
2018-07-19T20:49:58.897Z,41.29
2018-07-19T20:52:26.640Z,42.21
2018-07-19T20:54:54.341Z,42.63
2018-07-19T20:57:21.905Z,42.41
2018-07-19T20:59:49.685Z,44.49
2018-07-19T21:02:17.490Z,44.22
2018-07-19T21:04:45.166Z,43.95
2018-07-19T21:07:12.801Z,44.06
2018-07-19T21:09:40.454Z,44.48
2018-07-19T21:12:08.102Z,44.25
2018-07-19T21:14:35.806Z,44.31
2018-07-19T21:17:03.413Z,43.23
2018-07-19T21:19:31.102Z,43.97
2018-07-19T21:21:58.698Z,43.72
2018-07-19T21:24:26.309Z,44.57
2018-07-19T21:26:54.013Z,45.30
2018-07-19T21:29:21.628Z,44.71
2018-07-19T21:31:49.328Z,46.01
2018-07-19T21:34:16.954Z,45.74
2018-07-19T21:36:44.664Z,46.63
2018-07-19T21:39:12.277Z,46.21
2018-07-19T21:41:40.338Z,46.18
2018-07-19T21:44:08.485Z,46.02
2018-07-19T21:46:36.153Z,44.56
2018-07-19T21:49:04.441Z,43.57
2018-07-19T21:51:32.140Z,43.43
2018-07-19T21:53:59.778Z,42.96
2018-07-19T21:56:27.474Z,43.94
2018-07-19T21:58:55.161Z,44.73
2018-07-19T22:01:22.757Z,44.63
2018-07-19T22:03:50.521Z,43.72
2018-07-19T22:06:18.249Z,43.68
2018-07-19T22:08:45.957Z,43.75
2018-07-19T22:11:13.712Z,44.01
2018-07-19T22:13:41.323Z,43.80
2018-07-19T22:16:09.013Z,42.40
2018-07-19T22:18:36.648Z,42.14
2018-07-19T22:21:04.256Z,44.02
2018-07-19T22:23:32.017Z,43.38
2018-07-19T22:25:59.676Z,43.36
2018-07-19T22:28:27.316Z,43.80
2018-07-19T22:30:54.952Z,44.27
2018-07-19T22:33:22.585Z,44.71
2018-07-19T22:35:50.174Z,45.38
2018-07-19T22:38:17.981Z,45.29
2018-07-19T22:40:45.616Z,44.06
2018-07-19T22:43:13.289Z,43.53
2018-07-19T22:45:40.874Z,43.64
2018-07-19T22:48:08.505Z,44.29
2018-07-19T22:50:36.165Z,44.31
2018-07-19T22:53:03.801Z,45.30
2018-07-19T22:55:31.525Z,44.94
2018-07-19T22:57:59.113Z,45.99
2018-07-19T23:00:26.856Z,45.53
2018-07-19T23:02:54.626Z,45.42
2018-07-19T23:05:22.289Z,46.53
2018-07-19T23:07:49.938Z,46.20
2018-07-19T23:10:35.046Z,46.19
2018-07-19T23:13:02.679Z,47.49
2018-07-19T23:15:30.273Z,47.04
2018-07-19T23:17:57.936Z,46.82
2018-07-19T23:20:25.718Z,47.62
2018-07-19T23:22:55.465Z,47.92
2018-07-19T23:25:23.350Z,48.07
2018-07-19T23:27:51.645Z,46.56
2018-07-19T23:30:19.830Z,46.05
2018-07-19T23:32:47.725Z,46.39
2018-07-19T23:35:15.415Z,46.25
2018-07-19T23:37:44.661Z,47.48
2018-07-19T23:40:15.892Z,46.31
2018-07-19T23:42:50.153Z,47.42
2018-07-19T23:45:23.481Z,48.05
2018-07-19T23:47:51.589Z,47.78
2018-07-19T23:50:19.372Z,46.60
2018-07-19T23:52:47.063Z,47.24
2018-07-19T23:55:14.688Z,46.65
2018-07-19T23:57:42.286Z,47.02
